Time;durP1;ratioP1;P1;durP2;ratioP2;P2;SDS_P1;SDS_P2;PMS_P1;PMS_P2;Temp;Humidity;BMP_temperature;BMP_pressure;BME280_temperature;BME280_humidity;BME280_pressure;Samples;Min_cycle;Max_cycle;Signal;HPM_P1;HPM_P2
2022/09/06 00:03:23;;;;;;;3.53;3.20;;;22.80;83.00;;;;;;10562887;28;20115;-61
2022/09/06 00:08:24;;;;;;;3.65;3.30;;;22.80;83.00;;;;;;10557414;28;20042;-61
2022/09/06 00:13:24;;;;;;;3.35;3.00;;;22.80;83.00;;;;;;10556694;28;20373;-61
2022/09/06 00:18:25;;;;;;;4.63;3.28;;;22.80;83.00;;;;;;10558006;28;20024;-60
2022/09/06 00:23:26;;;;;;;3.92;3.30;;;22.80;83.00;;;;;;10557177;28;20043;-62
2022/09/06 00:28:27;;;;;;;4.18;3.78;;;22.70;83.00;;;;;;10559281;28;20054;-60
2022/09/06 00:33:27;;;;;;;3.45;3.15;;;22.70;82.90;;;;;;10560784;28;20064;-60
2022/09/06 00:38:28;;;;;;;3.88;3.58;;;22.70;83.00;;;;;;10561847;28;20040;-60
2022/09/06 00:43:29;;;;;;;4.38;3.53;;;22.70;82.90;;;;;;10559896;28;20368;-61
2022/09/06 00:48:30;;;;;;;4.68;3.50;;;22.70;83.00;;;;;;10563475;28;20028;-61
2022/09/06 00:53:31;;;;;;;3.95;3.53;;;22.60;83.00;;;;;;10569098;28;20061;-60
2022/09/06 00:58:33;;;;;;;4.35;3.67;;;22.70;83.00;;;;;;10568777;28;20433;-61
2022/09/06 01:03:35;;;;;;;4.00;3.60;;;22.60;83.10;;;;;;10563578;28;20468;-61
2022/09/06 01:08:48;;;;;;;4.30;3.60;;;22.60;83.10;;;;;;10542694;28;20039;-61
2022/09/06 01:14:01;;;;;;;4.28;3.55;;;22.60;83.10;;;;;;10563640;28;20035;-61
2022/09/06 01:19:27;;;;;;;4.68;4.15;;;22.60;83.00;;;;;;10558943;28;20043;-61
2022/09/06 01:25:05;;;;;;;5.07;4.32;;;22.50;82.90;;;;;;10566650;28;20047;-61
2022/09/06 01:30:12;;;;;;;3.85;3.45;;;22.50;83.00;;;;;;10564208;28;20042;-60
2022/09/06 01:35:17;;;;;;;4.35;3.85;;;22.50;83.00;;;;;;10561168;28;20058;-60
2022/09/06 01:40:18;;;;;;;4.60;4.03;;;22.50;83.00;;;;;;10562866;28;20030;-61
2022/09/06 01:45:58;;;;;;;5.05;4.15;;;22.50;83.00;;;;;;10558778;28;20035;-60
2022/09/06 01:51:33;;;;;;;4.25;3.85;;;22.50;82.90;;;;;;10520578;28;20036;-60
2022/09/06 01:57:02;;;;;;;4.18;3.78;;;22.40;83.00;;;;;;10562677;28;20028;-62
2022/09/06 02:02:34;;;;;;;6.85;3.83;;;22.40;83.00;;;;;;10559272;27;20026;-61
2022/09/06 02:07:37;;;;;;;4.68;4.18;;;22.40;83.00;;;;;;10556574;28;20044;-60
2022/09/06 02:12:42;;;;;;;4.95;4.38;;;22.40;83.00;;;;;;10562851;28;20040;-60
2022/09/06 02:17:50;;;;;;;4.57;4.18;;;22.40;83.10;;;;;;10542860;28;20031;-60
2022/09/06 02:22:55;;;;;;;5.38;4.32;;;22.40;83.10;;;;;;10561330;28;20039;-60
2022/09/06 02:27:56;;;;;;;5.05;4.45;;;22.30;83.10;;;;;;10564346;28;20071;-61
2022/09/06 02:33:01;;;;;;;5.07;4.28;;;22.30;83.10;;;;;;10561815;28;20047;-63
2022/09/06 02:38:02;;;;;;;4.57;4.07;;;22.30;83.20;;;;;;10558181;28;20023;-61
2022/09/06 02:43:03;;;;;;;4.88;4.30;;;22.30;83.30;;;;;;10559085;28;20016;-60
2022/09/06 02:48:04;;;;;;;6.57;4.57;;;22.30;83.30;;;;;;10556059;28;20042;-60
2022/09/06 02:53:08;;;;;;;5.28;4.78;;;22.30;83.40;;;;;;10561955;28;20073;-60
2022/09/06 02:58:10;;;;;;;4.60;4.20;;;22.20;83.40;;;;;;10559035;28;20436;-61
2022/09/06 03:03:11;;;;;;;5.10;4.60;;;22.20;83.40;;;;;;10562646;28;20026;-60
2022/09/06 03:08:11;;;;;;;5.20;4.70;;;22.20;83.50;;;;;;10558489;28;20472;-60
2022/09/06 03:13:12;;;;;;;5.95;4.97;;;22.20;83.50;;;;;;10558320;28;20035;-60
2022/09/06 03:18:13;;;;;;;5.20;4.70;;;22.20;83.60;;;;;;10554732;28;20053;-60
2022/09/06 03:23:14;;;;;;;5.72;5.13;;;22.20;83.70;;;;;;10561153;28;20031;-60
2022/09/06 03:28:16;;;;;;;5.55;4.85;;;22.20;83.70;;;;;;10558807;28;20043;-60
2022/09/06 03:33:18;;;;;;;4.93;4.47;;;22.10;83.70;;;;;;10559789;28;20027;-60
2022/09/06 03:38:19;;;;;;;5.78;4.90;;;22.10;83.80;;;;;;10560830;28;20490;-62
2022/09/06 03:43:22;;;;;;;5.10;4.63;;;22.10;83.90;;;;;;10564093;28;20028;-61
2022/09/06 03:48:24;;;;;;;5.55;4.40;;;22.10;83.90;;;;;;10559506;28;20391;-61
2022/09/06 03:53:26;;;;;;;5.25;4.75;;;22.10;84.60;;;;;;10559597;28;20030;-60
2022/09/06 03:58:31;;;;;;;5.57;4.95;;;22.10;84.10;;;;;;10557808;28;20070;-60
2022/09/06 04:03:33;;;;;;;5.25;4.75;;;22.00;84.10;;;;;;10559190;28;20026;-61
2022/09/06 04:08:35;;;;;;;4.70;4.30;;;22.00;84.20;;;;;;10554507;28;20118;-61
2022/09/06 04:13:36;;;;;;;6.72;5.03;;;22.00;84.20;;;;;;10554030;28;20483;-61
2022/09/06 04:18:37;;;;;;;5.43;4.47;;;22.00;84.30;;;;;;10557613;28;20027;-61
2022/09/06 04:23:38;;;;;;;5.60;5.00;;;22.00;84.40;;;;;;10563135;28;20423;-60
2022/09/06 04:28:38;;;;;;;5.15;4.50;;;22.00;84.40;;;;;;10570698;28;20051;-61
2022/09/06 04:33:39;;;;;;;5.57;4.75;;;21.90;84.40;;;;;;10567744;28;20034;-61
2022/09/06 04:38:42;;;;;;;5.57;4.88;;;21.90;84.40;;;;;;10559715;28;20036;-61
2022/09/06 04:43:43;;;;;;;5.15;4.65;;;21.90;84.50;;;;;;10562274;28;20028;-60
2022/09/06 04:48:44;;;;;;;5.28;4.78;;;21.90;84.50;;;;;;10562991;28;20036;-60
2022/09/06 04:53:45;;;;;;;7.10;5.07;;;21.90;84.50;;;;;;10564822;28;20023;-61
2022/09/06 04:58:47;;;;;;;6.53;5.28;;;21.90;84.60;;;;;;10565427;28;20251;-60
2022/09/06 05:03:48;;;;;;;5.60;5.10;;;21.90;84.60;;;;;;10566841;28;20381;-61
2022/09/06 05:08:49;;;;;;;5.45;4.75;;;21.80;84.60;;;;;;10560238;28;20035;-61
2022/09/06 05:13:50;;;;;;;6.10;5.07;;;21.80;84.70;;;;;;10561000;28;20016;-60
2022/09/06 05:18:51;;;;;;;7.40;5.57;;;21.80;85.30;;;;;;10562348;28;20395;-61
2022/09/06 05:23:52;;;;;;;5.63;4.90;;;21.80;84.70;;;;;;10563923;28;20046;-61
2022/09/06 05:28:53;;;;;;;5.57;5.07;;;21.70;84.70;;;;;;10548295;28;20102;-60
2022/09/06 05:33:54;;;;;;;5.38;4.88;;;21.70;84.70;;;;;;10569170;28;20480;-61
2022/09/06 05:38:56;;;;;;;6.72;5.43;;;21.70;84.70;;;;;;10558546;28;20027;-60
2022/09/06 05:43:56;;;;;;;6.70;5.50;;;21.70;84.80;;;;;;10545105;28;20023;-61
2022/09/06 05:49:06;;;;;;;6.15;5.50;;;21.70;84.80;;;;;;10545330;28;20043;-61
2022/09/06 05:54:09;;;;;;;6.25;5.32;;;21.70;84.80;;;;;;10556903;28;20047;-60
2022/09/06 05:59:10;;;;;;;6.45;5.53;;;21.70;84.90;;;;;;10496140;28;20057;-61
2022/09/06 06:04:11;;;;;;;7.70;5.75;;;21.70;84.90;;;;;;10525603;28;20026;-64
2022/09/06 06:09:15;;;;;;;8.65;6.00;;;21.60;85.20;;;;;;10485670;28;20040;-60
2022/09/06 06:14:16;;;;;;;7.10;5.47;;;21.60;85.40;;;;;;10481223;28;20023;-60
2022/09/06 06:19:17;;;;;;;7.80;5.55;;;21.60;86.00;;;;;;10478551;28;20032;-60
2022/09/06 06:24:18;;;;;;;6.82;4.95;;;21.60;85.50;;;;;;10458144;28;20123;-61
2022/09/06 06:29:24;;;;;;;5.93;5.32;;;21.60;85.50;;;;;;10486121;28;20997;-60
2022/09/06 06:34:24;;;;;;;6.22;5.22;;;21.50;85.40;;;;;;10486772;28;20119;-61
2022/09/06 06:39:25;;;;;;;6.82;5.63;;;21.60;85.40;;;;;;10477918;28;20865;-61
2022/09/06 06:44:27;;;;;;;6.57;5.88;;;21.60;85.50;;;;;;10466832;28;20124;-61
2022/09/06 06:49:28;;;;;;;7.45;6.15;;;21.60;85.50;;;;;;10478991;28;20039;-61
2022/09/06 06:54:29;;;;;;;7.53;5.75;;;21.60;85.50;;;;;;10484726;28;20146;-61
2022/09/06 06:59:30;;;;;;;6.53;5.75;;;21.60;85.50;;;;;;10478788;28;20059;-61
2022/09/06 07:04:31;;;;;;;6.75;6.10;;;21.60;85.40;;;;;;10460303;28;20024;-60
2022/09/06 07:09:31;;;;;;;10.70;6.20;;;21.60;85.30;;;;;;10477942;28;20044;-62
2022/09/06 07:14:32;;;;;;;6.32;5.55;;;21.70;85.40;;;;;;10468889;28;20151;-61
2022/09/06 07:19:33;;;;;;;7.45;6.15;;;21.70;85.30;;;;;;10452282;28;20583;-62
2022/09/06 07:24:33;;;;;;;8.38;6.13;;;21.80;85.20;;;;;;10468878;28;20639;-62
2022/09/06 07:29:34;;;;;;;7.43;5.68;;;21.80;85.10;;;;;;10472153;28;20079;-62
2022/09/06 07:34:36;;;;;;;7.97;6.22;;;21.90;85.00;;;;;;10471385;28;20031;-61
2022/09/06 07:39:37;;;;;;;7.45;5.57;;;21.90;84.90;;;;;;10472992;28;20038;-64
2022/09/06 07:44:38;;;;;;;6.15;5.22;;;21.90;84.70;;;;;;10468822;28;20040;-61
2022/09/06 07:49:39;;;;;;;8.48;6.78;;;22.00;84.60;;;;;;10458716;28;20055;-61
2022/09/06 07:54:39;;;;;;;9.50;6.03;;;22.10;84.60;;;;;;10463638;28;20082;-61
2022/09/06 07:59:40;;;;;;;6.82;6.15;;;22.10;84.60;;;;;;10467621;28;20043;-61
2022/09/06 08:04:41;;;;;;;6.63;5.70;;;22.10;84.60;;;;;;10482759;28;20031;-61
2022/09/06 08:09:42;;;;;;;6.72;5.32;;;22.10;84.50;;;;;;10478459;27;20035;-61
2022/09/06 08:14:42;;;;;;;7.55;5.75;;;22.20;84.50;;;;;;10458967;28;20030;-61
2022/09/06 08:19:43;;;;;;;8.77;5.75;;;22.20;84.50;;;;;;10475930;28;21056;-61
2022/09/06 08:24:44;;;;;;;6.45;5.68;;;22.20;84.50;;;;;;10477540;28;20168;-61
2022/09/06 08:29:45;;;;;;;7.05;5.72;;;22.20;84.50;;;;;;10481753;28;20158;-61
2022/09/06 08:34:45;;;;;;;6.32;5.55;;;22.20;84.50;;;;;;10466938;28;20036;-61
2022/09/06 08:39:46;;;;;;;6.20;5.60;;;22.30;84.50;;;;;;10473430;28;20040;-64
2022/09/06 08:44:52;;;;;;;6.30;5.45;;;22.30;84.50;;;;;;10455642;28;20142;-61
2022/09/06 08:50:05;;;;;;;7.35;5.88;;;22.30;84.50;;;;;;10477278;28;20146;-61
2022/09/06 08:55:08;;;;;;;6.53;5.40;;;22.40;84.60;;;;;;10481736;28;20117;-60
2022/09/06 09:00:12;;;;;;;6.70;5.85;;;22.40;84.40;;;;;;10482200;28;20020;-60
2022/09/06 09:05:19;;;;;;;6.30;5.70;;;22.40;84.40;;;;;;10477510;28;20832;-61
2022/09/06 09:10:29;;;;;;;7.32;5.88;;;22.50;84.50;;;;;;10482968;28;20059;-64
2022/09/06 09:15:30;;;;;;;7.72;5.68;;;22.50;84.40;;;;;;10484762;28;20179;-61
2022/09/06 09:20:31;;;;;;;5.82;5.22;;;22.50;84.30;;;;;;10471861;28;20125;-61
2022/09/06 09:25:33;;;;;;;8.30;5.57;;;22.60;84.30;;;;;;10467730;27;20052;-61
2022/09/06 09:30:51;;;;;;;5.97;5.00;;;22.60;84.30;;;;;;10481759;27;20142;-60
2022/09/06 09:35:53;;;;;;;6.07;5.22;;;22.70;84.40;;;;;;10482407;28;20891;-61
2022/09/06 09:40:56;;;;;;;6.70;5.10;;;22.70;84.20;;;;;;10489518;28;20024;-60
2022/09/06 09:46:11;;;;;;;6.38;5.30;;;22.70;84.20;;;;;;10481186;28;20043;-61
2022/09/06 09:51:20;;;;;;;7.20;5.60;;;22.80;84.30;;;;;;10479700;28;20046;-64
2022/09/06 09:56:31;;;;;;;6.97;5.18;;;22.90;84.20;;;;;;10474013;28;20026;-60
2022/09/06 10:01:33;;;;;;;5.97;4.82;;;22.90;84.10;;;;;;10473083;28;20100;-61
2022/09/06 10:06:34;;;;;;;4.93;4.43;;;23.00;83.80;;;;;;10469226;28;20112;-61
2022/09/06 10:11:55;;;;;;;5.85;4.45;;;23.00;83.70;;;;;;10468740;28;20066;-61
2022/09/06 10:16:57;;;;;;;6.50;4.78;;;23.10;83.80;;;;;;10477063;28;20708;-61
2022/09/06 10:22:14;;;;;;;4.82;4.30;;;23.20;83.50;;;;;;10480894;28;20034;-61
2022/09/06 10:27:22;;;;;;;5.70;4.00;;;23.20;83.30;;;;;;10481221;28;20599;-61
2022/09/06 10:32:46;;;;;;;5.57;3.92;;;23.30;83.20;;;;;;10483287;28;20043;-60
2022/09/06 10:38:18;;;;;;;4.40;4.00;;;23.30;83.00;;;;;;10480609;28;20080;-61
2022/09/06 10:43:19;;;;;;;4.57;3.65;;;23.40;82.80;;;;;;10476832;28;20031;-61
2022/09/06 10:48:29;;;;;;;3.30;3.00;;;23.50;82.70;;;;;;10478569;28;20216;-60
2022/09/06 10:53:54;;;;;;;4.38;3.58;;;23.60;82.60;;;;;;10463327;28;20024;-60
2022/09/06 10:59:04;;;;;;;4.05;3.65;;;23.60;82.50;;;;;;10477949;28;20043;-61
2022/09/06 11:04:10;;;;;;;3.58;3.08;;;23.70;82.40;;;;;;10482935;28;20371;-61
2022/09/06 11:09:36;;;;;;;4.03;3.33;;;23.70;82.20;;;;;;10457552;28;20028;-60
2022/09/06 11:14:38;;;;;;;3.20;2.90;;;23.80;82.10;;;;;;10478218;28;20142;-61
2022/09/06 11:19:48;;;;;;;3.15;2.85;;;23.90;82.10;;;;;;10475883;28;20048;-62
2022/09/06 11:25:24;;;;;;;3.78;3.10;;;23.90;82.00;;;;;;10481943;28;20093;-61
2022/09/06 11:30:26;;;;;;;3.45;3.08;;;24.00;82.00;;;;;;10479221;28;20031;-61
2022/09/06 11:35:32;;;;;;;5.18;2.92;;;24.10;81.90;;;;;;10478457;28;20888;-60
2022/09/06 11:40:41;;;;;;;3.03;2.72;;;24.10;81.70;;;;;;10487560;28;20080;-60
2022/09/06 11:45:52;;;;;;;3.63;2.83;;;24.20;81.70;;;;;;10481274;28;20028;-61
2022/09/06 11:50:52;;;;;;;3.30;3.00;;;24.20;81.50;;;;;;10472264;28;20104;-60
2022/09/06 11:55:59;;;;;;;2.80;2.53;;;24.30;81.40;;;;;;10479517;28;20031;-61
2022/09/06 12:01:12;;;;;;;3.25;2.67;;;24.40;81.30;;;;;;10474479;28;20028;-61
2022/09/06 12:06:23;;;;;;;3.05;2.75;;;24.50;81.30;;;;;;10468335;28;20050;-62
2022/09/06 12:11:40;;;;;;;3.63;2.63;;;24.50;81.10;;;;;;10475051;28;20032;-62
2022/09/06 12:16:59;;;;;;;3.37;2.60;;;24.50;81.20;;;;;;10472519;28;20034;-61
2022/09/06 12:22:00;;;;;;;2.60;2.40;;;24.50;81.20;;;;;;10473850;28;20035;-60
2022/09/06 12:27:14;;;;;;;2.72;2.45;;;24.60;81.20;;;;;;10472702;28;20446;-61
2022/09/06 12:32:21;;;;;;;3.70;2.63;;;24.70;81.00;;;;;;10466908;28;20837;-60
2022/09/06 12:37:38;;;;;;;2.92;2.35;;;24.70;81.10;;;;;;10464094;28;20032;-64
2022/09/06 12:42:40;;;;;;;2.95;2.42;;;24.70;81.20;;;;;;10471980;28;20138;-61
2022/09/06 12:47:41;;;;;;;2.30;2.10;;;24.70;81.20;;;;;;10464300;28;20031;-61
2022/09/06 12:53:03;;;;;;;2.83;2.20;;;24.80;81.10;;;;;;10483075;28;20441;-62
2022/09/06 12:58:07;;;;;;;2.83;2.00;;;25.00;81.10;;;;;;10481935;28;20024;-65
2022/09/06 13:03:26;;;;;;;3.47;2.50;;;25.10;80.90;;;;;;10485036;28;20165;-62
2022/09/06 13:08:41;;;;;;;3.05;2.13;;;25.10;80.60;;;;;;10482932;28;20869;-61
2022/09/06 13:13:51;;;;;;;2.97;2.53;;;25.10;80.70;;;;;;10479515;28;20062;-63
2022/09/06 13:18:52;;;;;;;3.17;2.25;;;25.20;80.70;;;;;;10479757;28;20535;-60
2022/09/06 13:23:53;;;;;;;2.65;2.25;;;25.20;81.50;;;;;;10483759;28;20731;-62
2022/09/06 13:28:54;;;;;;;2.63;2.22;;;25.20;80.90;;;;;;10482717;28;20035;-63
2022/09/06 13:33:57;;;;;;;7.88;2.20;;;25.30;81.00;;;;;;10484828;28;20108;-63
2022/09/06 13:38:59;;;;;;;2.78;2.22;;;25.30;81.00;;;;;;10480600;28;20154;-61
2022/09/06 13:44:03;;;;;;;3.65;2.53;;;25.40;81.20;;;;;;10481326;28;20031;-60
2022/09/06 13:49:04;;;;;;;2.72;2.20;;;25.40;81.20;;;;;;10483684;28;20387;-62
2022/09/06 13:54:10;;;;;;;3.50;2.60;;;25.50;81.20;;;;;;10480912;28;20132;-62
2022/09/06 13:59:11;;;;;;;3.20;2.58;;;25.60;81.20;;;;;;10478825;28;20722;-63
2022/09/06 14:04:14;;;;;;;2.67;2.20;;;25.70;81.10;;;;;;10474224;28;20028;-63
2022/09/06 14:09:15;;;;;;;2.63;2.42;;;25.80;81.10;;;;;;10468124;28;20655;-62
2022/09/06 14:14:17;;;;;;;3.55;2.65;;;25.80;80.90;;;;;;10468741;28;20096;-63
2022/09/06 14:19:17;;;;;;;4.22;2.42;;;25.90;80.90;;;;;;10469333;28;20023;-62
2022/09/06 14:24:19;;;;;;;3.35;2.45;;;26.00;80.70;;;;;;10471909;28;20039;-62
2022/09/06 14:29:19;;;;;;;3.55;2.70;;;26.00;80.50;;;;;;10472754;28;20153;-61
2022/09/06 14:34:20;;;;;;;3.30;2.67;;;26.10;80.40;;;;;;10469941;28;20038;-60
2022/09/06 14:39:21;;;;;;;2.60;2.33;;;26.20;80.20;;;;;;10471124;28;20475;-62
2022/09/06 14:44:22;;;;;;;2.97;2.47;;;26.30;80.20;;;;;;10468987;28;20031;-61
2022/09/06 14:49:23;;;;;;;2.67;2.30;;;26.40;80.00;;;;;;10447967;28;20529;-61
2022/09/06 14:54:24;;;;;;;4.72;2.60;;;26.50;79.90;;;;;;10472335;28;20028;-61
2022/09/06 14:59:25;;;;;;;5.18;2.80;;;26.60;79.90;;;;;;10469153;28;20067;-62
2022/09/06 15:04:29;;;;;;;2.60;2.40;;;26.70;79.70;;;;;;10470196;28;20335;-61
2022/09/06 15:09:30;;;;;;;2.72;2.40;;;26.80;79.70;;;;;;10469621;28;20318;-61
2022/09/06 15:14:32;;;;;;;3.30;2.78;;;26.80;79.50;;;;;;10471256;28;20139;-60
2022/09/06 15:19:35;;;;;;;5.05;2.90;;;26.90;79.50;;;;;;10468728;28;20675;-62
2022/09/06 15:24:36;;;;;;;3.03;2.55;;;26.90;79.40;;;;;;10470935;28;20092;-62
2022/09/06 15:29:38;;;;;;;3.55;2.60;;;27.00;79.50;;;;;;10470926;28;20126;-61
2022/09/06 15:34:39;;;;;;;4.85;3.05;;;27.10;79.30;;;;;;10447775;28;20130;-61
2022/09/06 15:39:39;;;;;;;7.40;2.90;;;27.10;79.30;;;;;;10469365;28;20040;-62
2022/09/06 15:44:40;;;;;;;3.10;2.80;;;27.10;79.30;;;;;;10467791;28;20598;-62
2022/09/06 15:49:41;;;;;;;4.72;3.00;;;27.10;79.50;;;;;;10463124;28;20787;-62
2022/09/06 16:00:03;;;;;;;3.10;2.80;;;26.90;79.80;;;;;;10464432;28;20387;-62
2022/09/06 16:05:04;;;;;;;3.03;2.72;;;26.90;80.00;;;;;;10466156;28;20276;-62
2022/09/06 16:10:05;;;;;;;4.28;2.80;;;26.80;80.10;;;;;;10467995;28;20414;-61
2022/09/06 16:15:06;;;;;;;2.67;2.40;;;26.80;80.30;;;;;;10463800;28;20047;-62
2022/09/06 16:20:08;;;;;;;3.22;2.65;;;26.80;80.40;;;;;;10458239;28;20166;-61
2022/09/06 16:25:09;;;;;;;4.18;2.67;;;26.70;80.40;;;;;;10468067;28;20055;-62
2022/09/06 16:30:10;;;;;;;2.80;2.47;;;26.70;80.70;;;;;;10466619;28;20486;-61
2022/09/06 16:35:11;;;;;;;3.78;2.70;;;26.60;80.80;;;;;;10454621;28;20027;-61
2022/09/06 16:40:11;;;;;;;2.92;2.38;;;26.60;81.00;;;;;;10429823;28;20079;-62
2022/09/06 16:45:12;;;;;;;3.85;2.97;;;26.50;81.10;;;;;;10467811;28;20071;-61
2022/09/06 16:50:13;;;;;;;4.78;2.80;;;26.40;81.10;;;;;;10466507;28;20114;-62
2022/09/06 16:55:15;;;;;;;2.60;2.40;;;26.40;81.30;;;;;;10463656;28;20491;-62
2022/09/06 17:00:16;;;;;;;3.13;2.53;;;26.30;81.40;;;;;;10456664;28;20027;-62
2022/09/06 17:05:17;;;;;;;2.70;2.40;;;26.30;81.50;;;;;;10480430;28;20760;-62
2022/09/06 17:10:18;;;;;;;2.45;2.17;;;26.30;81.70;;;;;;10477867;28;20039;-63
2022/09/06 17:15:18;;;;;;;3.65;2.53;;;26.20;81.70;;;;;;10481523;28;20643;-62
2022/09/06 17:20:19;;;;;;;4.15;2.70;;;26.20;81.80;;;;;;10482006;28;20328;-64
2022/09/06 17:25:20;;;;;;;3.00;2.70;;;26.20;81.90;;;;;;10484094;28;20378;-62
2022/09/06 17:30:21;;;;;;;2.70;2.47;;;26.10;81.90;;;;;;10489946;28;20131;-62
2022/09/06 17:35:21;;;;;;;2.55;2.35;;;26.10;82.10;;;;;;10490050;28;20036;-63
2022/09/06 17:40:22;;;;;;;3.10;2.35;;;26.00;82.10;;;;;;10489143;28;20298;-62
2022/09/06 17:45:23;;;;;;;2.65;2.30;;;26.00;82.30;;;;;;10491293;28;20032;-63
2022/09/06 17:50:23;;;;;;;3.78;2.58;;;26.00;82.40;;;;;;10468760;28;20347;-64
2022/09/06 17:55:28;;;;;;;2.55;2.30;;;25.90;82.50;;;;;;10491857;28;20032;-62
2022/09/06 18:00:28;;;;;;;3.50;2.40;;;25.80;82.50;;;;;;10488987;28;20036;-63
2022/09/06 18:05:29;;;;;;;3.58;2.20;;;25.80;82.70;;;;;;10461644;28;20035;-62
2022/09/06 18:10:36;;;;;;;3.42;2.58;;;25.80;82.80;;;;;;10489373;28;20436;-63
2022/09/06 18:15:40;;;;;;;3.67;2.50;;;25.70;82.80;;;;;;10487292;28;20024;-63
2022/09/06 18:20:41;;;;;;;2.92;2.50;;;25.70;82.90;;;;;;10482132;28;20433;-62
2022/09/06 18:25:42;;;;;;;4.28;3.40;;;25.60;83.00;;;;;;10476091;28;20480;-62
2022/09/06 18:30:43;;;;;;;5.25;4.63;;;25.50;83.00;;;;;;10464635;28;20036;-62
2022/09/06 18:35:47;;;;;;;8.10;4.55;;;25.30;83.00;;;;;;10490342;28;20084;-61
2022/09/06 18:40:53;;;;;;;5.43;4.60;;;25.00;83.30;;;;;;10541574;28;20480;-64
2022/09/06 18:46:00;;;;;;;6.78;4.85;;;24.70;83.60;;;;;;10549479;28;20059;-64
2022/09/06 18:51:06;;;;;;;8.35;4.80;;;24.50;83.80;;;;;;10544237;28;20190;-62
2022/09/06 18:56:07;;;;;;;8.43;5.32;;;24.50;84.20;;;;;;10545744;28;20437;-61
2022/09/06 19:01:10;;;;;;;6.72;5.40;;;24.30;84.20;;;;;;10546630;28;20323;-61
2022/09/06 19:06:17;;;;;;;7.25;4.93;;;24.10;84.30;;;;;;10545073;28;20134;-61
2022/09/06 19:11:19;;;;;;;8.73;4.60;;;24.00;84.50;;;;;;10544410;28;20043;-61
2022/09/06 19:16:21;;;;;;;10.65;4.72;;;24.00;84.60;;;;;;10545907;28;20111;-64
2022/09/06 19:21:24;;;;;;;7.30;4.25;;;24.00;84.90;;;;;;10525736;28;20032;-62
2022/09/06 19:26:27;;;;;;;9.55;5.47;;;23.90;85.20;;;;;;10541866;28;20552;-62
2022/09/06 19:31:30;;;;;;;6.50;4.68;;;23.90;85.30;;;;;;10539361;28;20036;-63
2022/09/06 19:36:31;;;;;;;6.75;5.30;;;23.90;85.60;;;;;;10539332;28;20035;-62
2022/09/06 19:41:36;;;;;;;7.00;5.90;;;23.90;85.80;;;;;;10545824;28;20443;-62
2022/09/06 19:46:38;;;;;;;8.85;6.25;;;23.70;85.90;;;;;;10543447;28;20576;-62
2022/09/06 19:51:38;;;;;;;9.20;5.75;;;23.60;86.20;;;;;;10549721;28;20031;-62
2022/09/06 19:56:39;;;;;;;8.48;5.72;;;23.60;86.40;;;;;;10564976;28;20036;-61
2022/09/06 20:01:42;;;;;;;6.30;4.80;;;23.50;86.70;;;;;;10549376;28;20050;-62
2022/09/06 20:06:43;;;;;;;5.82;4.30;;;23.60;86.40;;;;;;10539311;28;20051;-64
2022/09/06 20:11:45;;;;;;;6.22;4.15;;;23.70;86.00;;;;;;10539849;28;20495;-63
2022/09/06 20:16:45;;;;;;;8.18;4.32;;;23.80;85.60;;;;;;10538211;28;20020;-63
2022/09/06 20:21:46;;;;;;;5.40;3.90;;;23.90;85.40;;;;;;10558094;28;20038;-61
2022/09/06 20:26:47;;;;;;;5.50;3.95;;;24.00;85.30;;;;;;10553471;28;20039;-61
2022/09/06 20:31:47;;;;;;;4.82;4.25;;;24.00;85.10;;;;;;10560311;28;20393;-62
2022/09/06 20:36:48;;;;;;;3.78;3.33;;;24.10;85.00;;;;;;10552426;28;20043;-62
2022/09/06 20:41:49;;;;;;;4.95;3.83;;;24.10;84.90;;;;;;10554415;28;20020;-62
2022/09/06 20:46:50;;;;;;;5.35;4.10;;;24.10;84.90;;;;;;10562638;28;20055;-62
2022/09/06 20:51:50;;;;;;;7.50;3.78;;;24.10;84.90;;;;;;10538324;28;20024;-62
2022/09/06 20:56:52;;;;;;;6.05;3.67;;;24.10;84.80;;;;;;10560035;27;20031;-62
2022/09/06 21:01:53;;;;;;;5.13;4.13;;;24.10;84.80;;;;;;10561727;27;20055;-63
2022/09/06 21:06:54;;;;;;;6.78;3.95;;;24.10;84.80;;;;;;10554465;28;20122;-61
2022/09/06 21:11:56;;;;;;;4.18;3.53;;;24.10;84.90;;;;;;10560460;28;20027;-63
2022/09/06 21:16:57;;;;;;;4.25;3.47;;;24.10;84.90;;;;;;10557372;28;20099;-62
2022/09/06 21:21:57;;;;;;;4.90;3.40;;;24.00;84.80;;;;;;10559426;28;20104;-62
2022/09/06 21:26:58;;;;;;;5.05;3.58;;;24.10;84.90;;;;;;10564270;28;20143;-62
2022/09/06 21:31:59;;;;;;;4.28;3.30;;;24.00;84.80;;;;;;10560621;28;20023;-61
2022/09/06 21:37:00;;;;;;;3.85;3.15;;;24.00;84.80;;;;;;10563201;27;20036;-62
2022/09/06 21:42:00;;;;;;;5.13;3.60;;;24.00;84.80;;;;;;10560207;28;20030;-62
2022/09/06 21:47:02;;;;;;;4.20;3.40;;;24.00;84.70;;;;;;10559342;28;20036;-62
2022/09/06 21:52:03;;;;;;;5.13;3.42;;;24.00;84.70;;;;;;10565293;28;20046;-64
2022/09/06 21:57:04;;;;;;;4.32;3.03;;;23.90;84.70;;;;;;10566554;28;20024;-64
2022/09/06 22:02:05;;;;;;;3.78;3.40;;;23.90;84.70;;;;;;10547404;28;20394;-62
2022/09/06 22:07:06;;;;;;;3.85;3.20;;;23.90;84.70;;;;;;10540073;28;20093;-61
2022/09/06 22:12:06;;;;;;;3.55;3.22;;;23.90;84.60;;;;;;10561038;28;20019;-62
2022/09/06 22:17:07;;;;;;;6.22;3.30;;;23.90;84.70;;;;;;10559392;28;20023;-62
2022/09/06 22:22:08;;;;;;;7.25;3.30;;;23.80;84.70;;;;;;10562761;28;20395;-62
2022/09/06 22:27:08;;;;;;;4.63;3.95;;;23.80;84.80;;;;;;10561636;28;20138;-62
2022/09/06 22:32:09;;;;;;;3.92;3.47;;;23.80;85.00;;;;;;10560351;28;20016;-62
2022/09/06 22:37:10;;;;;;;5.35;3.90;;;23.80;85.00;;;;;;10563606;28;20032;-62
2022/09/06 22:42:11;;;;;;;5.43;3.53;;;23.70;85.10;;;;;;10559858;28;20415;-62
2022/09/06 22:47:11;;;;;;;4.53;3.40;;;23.70;85.20;;;;;;10561193;28;20035;-62
2022/09/06 22:52:12;;;;;;;3.92;3.50;;;23.70;85.30;;;;;;10554295;28;20479;-62
2022/09/06 22:57:13;;;;;;;5.13;3.40;;;23.70;85.40;;;;;;10561640;28;20072;-62
2022/09/06 23:02:13;;;;;;;4.07;3.53;;;23.60;85.50;;;;;;10562484;28;20026;-62
2022/09/06 23:07:14;;;;;;;3.78;3.10;;;23.60;85.50;;;;;;10562080;28;20046;-62
2022/09/06 23:12:15;;;;;;;4.07;3.20;;;23.60;85.60;;;;;;10556402;28;20404;-62
2022/09/06 23:17:15;;;;;;;3.83;3.30;;;23.60;85.70;;;;;;10556450;28;20027;-61
2022/09/06 23:22:16;;;;;;;4.10;3.70;;;23.60;85.80;;;;;;10558182;28;20412;-61
2022/09/06 23:27:17;;;;;;;3.80;3.40;;;23.50;85.80;;;;;;10563225;28;20427;-62
2022/09/06 23:32:18;;;;;;;4.68;3.70;;;23.60;85.90;;;;;;10562830;28;20030;-62
2022/09/06 23:37:18;;;;;;;4.07;3.67;;;23.50;86.00;;;;;;10560404;28;20080;-63
2022/09/06 23:42:20;;;;;;;4.40;3.97;;;23.50;86.00;;;;;;10563117;28;20049;-62
2022/09/06 23:47:21;;;;;;;4.50;3.70;;;23.40;86.10;;;;;;10557317;28;21603;-62
2022/09/06 23:52:22;;;;;;;6.05;3.90;;;23.40;86.10;;;;;;10553624;28;20024;-61
2022/09/06 23:57:23;;;;;;;6.07;4.40;;;23.40;86.20;;;;;;10561863;28;20387;-61
